sensor_id;sensor_type;location;lat;lon;timestamp;pressure;altitude;pressure_sealevel;temperature;humidity
23166;BME280;11751;42.700;24.170;2023-06-05T00:00:28;94462.41;;;16.39;nan
23166;BME280;11751;42.700;24.170;2023-06-05T00:02:53;94448.69;;;16.36;nan
23166;BME280;11751;42.700;24.170;2023-06-05T00:05:19;94457.00;;;16.34;nan
23166;BME280;11751;42.700;24.170;2023-06-05T00:07:44;94441.81;;;16.29;nan
23166;BME280;11751;42.700;24.170;2023-06-05T00:10:10;94449.00;;;16.40;nan
23166;BME280;11751;42.700;24.170;2023-06-05T00:12:36;94441.72;;;16.37;nan
23166;BME280;11751;42.700;24.170;2023-06-05T00:15:02;94438.41;;;16.31;nan
23166;BME280;11751;42.700;24.170;2023-06-05T00:17:28;94445.91;;;16.19;nan
23166;BME280;11751;42.700;24.170;2023-06-05T00:19:55;94444.59;;;16.03;nan
23166;BME280;11751;42.700;24.170;2023-06-05T00:22:26;94440.59;;;16.06;nan
23166;BME280;11751;42.700;24.170;2023-06-05T00:24:53;94444.06;;;16.14;nan
23166;BME280;11751;42.700;24.170;2023-06-05T00:27:18;94451.13;;;16.23;nan
23166;BME280;11751;42.700;24.170;2023-06-05T00:29:44;94440.56;;;16.23;nan
23166;BME280;11751;42.700;24.170;2023-06-05T00:32:10;94448.19;;;16.30;nan
23166;BME280;11751;42.700;24.170;2023-06-05T00:34:35;94446.53;;;16.27;nan
23166;BME280;11751;42.700;24.170;2023-06-05T00:37:01;94451.59;;;16.28;nan
23166;BME280;11751;42.700;24.170;2023-06-05T00:39:26;94453.84;;;16.30;nan
23166;BME280;11751;42.700;24.170;2023-06-05T00:41:52;94452.94;;;16.27;nan
23166;BME280;11751;42.700;24.170;2023-06-05T00:44:18;94451.03;;;16.30;nan
23166;BME280;11751;42.700;24.170;2023-06-05T00:46:43;94449.09;;;16.06;nan
23166;BME280;11751;42.700;24.170;2023-06-05T00:49:09;94457.22;;;16.02;nan
23166;BME280;11751;42.700;24.170;2023-06-05T00:51:35;94456.56;;;15.94;nan
23166;BME280;11751;42.700;24.170;2023-06-05T00:54:01;94456.75;;;15.96;nan
23166;BME280;11751;42.700;24.170;2023-06-05T00:56:27;94459.72;;;15.98;nan
23166;BME280;11751;42.700;24.170;2023-06-05T00:58:53;94457.91;;;15.93;nan
23166;BME280;11751;42.700;24.170;2023-06-05T01:01:20;94462.91;;;15.85;nan
23166;BME280;11751;42.700;24.170;2023-06-05T01:03:46;94461.09;;;15.80;nan
23166;BME280;11751;42.700;24.170;2023-06-05T01:06:13;94460.53;;;15.65;nan
23166;BME280;11751;42.700;24.170;2023-06-05T01:08:41;94461.31;;;15.58;nan
23166;BME280;11751;42.700;24.170;2023-06-05T01:14:15;94463.66;;;15.52;nan
23166;BME280;11751;42.700;24.170;2023-06-05T01:16:45;94459.75;;;15.64;nan
23166;BME280;11751;42.700;24.170;2023-06-05T01:19:15;94468.06;;;15.62;nan
23166;BME280;11751;42.700;24.170;2023-06-05T01:21:40;94463.91;;;15.63;nan
23166;BME280;11751;42.700;24.170;2023-06-05T01:24:06;94458.09;;;15.61;nan
23166;BME280;11751;42.700;24.170;2023-06-05T01:32:41;94453.28;;;15.54;nan
23166;BME280;11751;42.700;24.170;2023-06-05T01:35:10;94460.41;;;15.55;nan
23166;BME280;11751;42.700;24.170;2023-06-05T01:37:38;94458.38;;;15.56;nan
23166;BME280;11751;42.700;24.170;2023-06-05T01:40:13;94459.09;;;15.56;nan
23166;BME280;11751;42.700;24.170;2023-06-05T01:42:43;94454.59;;;15.53;nan
23166;BME280;11751;42.700;24.170;2023-06-05T01:45:10;94457.78;;;15.57;nan
23166;BME280;11751;42.700;24.170;2023-06-05T01:47:37;94459.44;;;15.60;nan
23166;BME280;11751;42.700;24.170;2023-06-05T01:50:04;94451.88;;;15.63;nan
23166;BME280;11751;42.700;24.170;2023-06-05T01:52:31;94456.19;;;15.64;nan
23166;BME280;11751;42.700;24.170;2023-06-05T01:54:56;94447.38;;;15.60;nan
23166;BME280;11751;42.700;24.170;2023-06-05T01:57:28;94442.50;;;15.60;nan
23166;BME280;11751;42.700;24.170;2023-06-05T01:59:55;94450.47;;;15.54;nan
23166;BME280;11751;42.700;24.170;2023-06-05T02:02:21;94440.25;;;15.59;nan
23166;BME280;11751;42.700;24.170;2023-06-05T02:04:50;94445.06;;;15.49;nan
23166;BME280;11751;42.700;24.170;2023-06-05T02:07:15;94446.50;;;15.41;nan
23166;BME280;11751;42.700;24.170;2023-06-05T02:09:41;94447.81;;;15.40;nan
23166;BME280;11751;42.700;24.170;2023-06-05T02:12:07;94442.66;;;15.45;nan
23166;BME280;11751;42.700;24.170;2023-06-05T02:14:32;94445.31;;;15.43;nan
23166;BME280;11751;42.700;24.170;2023-06-05T02:17:01;94447.47;;;15.52;nan
23166;BME280;11751;42.700;24.170;2023-06-05T02:19:27;94443.72;;;15.50;nan
23166;BME280;11751;42.700;24.170;2023-06-05T02:21:52;94445.66;;;15.47;nan
23166;BME280;11751;42.700;24.170;2023-06-05T02:24:19;94454.13;;;15.47;nan
23166;BME280;11751;42.700;24.170;2023-06-05T02:26:44;94456.34;;;15.49;nan
23166;BME280;11751;42.700;24.170;2023-06-05T02:29:10;94451.06;;;15.53;nan
23166;BME280;11751;42.700;24.170;2023-06-05T02:31:35;94451.13;;;15.45;nan
23166;BME280;11751;42.700;24.170;2023-06-05T02:34:02;94457.28;;;15.51;nan
23166;BME280;11751;42.700;24.170;2023-06-05T02:36:28;94440.66;;;15.55;nan
23166;BME280;11751;42.700;24.170;2023-06-05T02:38:58;94443.16;;;15.51;nan
23166;BME280;11751;42.700;24.170;2023-06-05T02:41:25;94436.16;;;15.52;nan
23166;BME280;11751;42.700;24.170;2023-06-05T02:43:52;94435.78;;;15.56;nan
23166;BME280;11751;42.700;24.170;2023-06-05T02:46:18;94442.25;;;15.49;nan
23166;BME280;11751;42.700;24.170;2023-06-05T02:48:44;94427.84;;;15.21;nan
23166;BME280;11751;42.700;24.170;2023-06-05T02:51:10;94429.69;;;15.26;nan
23166;BME280;11751;42.700;24.170;2023-06-05T02:53:37;94428.59;;;15.21;nan
23166;BME280;11751;42.700;24.170;2023-06-05T02:56:03;94433.50;;;15.21;nan
23166;BME280;11751;42.700;24.170;2023-06-05T02:58:28;94431.53;;;15.31;nan
23166;BME280;11751;42.700;24.170;2023-06-05T03:00:54;94434.50;;;15.33;nan
23166;BME280;11751;42.700;24.170;2023-06-05T03:03:22;94439.84;;;15.29;nan
23166;BME280;11751;42.700;24.170;2023-06-05T03:05:52;94443.28;;;15.20;nan
23166;BME280;11751;42.700;24.170;2023-06-05T03:08:17;94437.66;;;15.20;nan
23166;BME280;11751;42.700;24.170;2023-06-05T03:10:43;94443.53;;;15.14;nan
23166;BME280;11751;42.700;24.170;2023-06-05T03:13:08;94439.16;;;15.21;nan
23166;BME280;11751;42.700;24.170;2023-06-05T03:15:34;94444.88;;;15.30;nan
23166;BME280;11751;42.700;24.170;2023-06-05T03:18:00;94445.78;;;15.33;nan
23166;BME280;11751;42.700;24.170;2023-06-05T03:20:26;94439.34;;;15.40;nan
23166;BME280;11751;42.700;24.170;2023-06-05T03:22:51;94443.41;;;15.46;nan
23166;BME280;11751;42.700;24.170;2023-06-05T03:25:17;94440.25;;;15.59;nan
23166;BME280;11751;42.700;24.170;2023-06-05T03:27:42;94442.50;;;15.60;nan
23166;BME280;11751;42.700;24.170;2023-06-05T03:30:09;94440.59;;;15.63;nan
23166;BME280;11751;42.700;24.170;2023-06-05T03:32:37;94438.16;;;15.76;nan
23166;BME280;11751;42.700;24.170;2023-06-05T03:35:02;94441.81;;;15.86;nan
23166;BME280;11751;42.700;24.170;2023-06-05T03:37:27;94439.78;;;15.96;nan
23166;BME280;11751;42.700;24.170;2023-06-05T03:39:53;94438.59;;;16.16;nan
23166;BME280;11751;42.700;24.170;2023-06-05T03:42:18;94434.72;;;16.38;nan
23166;BME280;11751;42.700;24.170;2023-06-05T03:44:44;94436.44;;;16.60;nan
23166;BME280;11751;42.700;24.170;2023-06-05T03:47:09;94428.19;;;16.71;nan
23166;BME280;11751;42.700;24.170;2023-06-05T03:49:35;94427.41;;;16.71;nan
23166;BME280;11751;42.700;24.170;2023-06-05T03:52:01;94434.91;;;16.76;nan
23166;BME280;11751;42.700;24.170;2023-06-05T03:54:28;94435.63;;;16.76;nan
23166;BME280;11751;42.700;24.170;2023-06-05T03:56:56;94441.78;;;16.92;nan
23166;BME280;11751;42.700;24.170;2023-06-05T03:59:24;94433.50;;;17.03;nan
23166;BME280;11751;42.700;24.170;2023-06-05T04:01:51;94436.94;;;17.11;nan
23166;BME280;11751;42.700;24.170;2023-06-05T04:04:16;94445.78;;;16.79;nan
23166;BME280;11751;42.700;24.170;2023-06-05T04:06:42;94447.75;;;16.60;nan
23166;BME280;11751;42.700;24.170;2023-06-05T04:09:09;94450.47;;;16.58;nan
23166;BME280;11751;42.700;24.170;2023-06-05T04:11:43;94444.91;;;16.50;nan
23166;BME280;11751;42.700;24.170;2023-06-05T04:14:09;94443.25;;;16.47;nan
23166;BME280;11751;42.700;24.170;2023-06-05T04:16:36;94453.19;;;16.39;nan
23166;BME280;11751;42.700;24.170;2023-06-05T04:19:07;94435.91;;;16.35;nan
23166;BME280;11751;42.700;24.170;2023-06-05T04:21:35;94445.63;;;16.51;nan
23166;BME280;11751;42.700;24.170;2023-06-05T04:24:02;94439.84;;;16.49;nan
23166;BME280;11751;42.700;24.170;2023-06-05T04:26:28;94440.38;;;16.38;nan
23166;BME280;11751;42.700;24.170;2023-06-05T04:28:54;94441.03;;;16.46;nan
23166;BME280;11751;42.700;24.170;2023-06-05T04:31:20;94440.47;;;16.57;nan
23166;BME280;11751;42.700;24.170;2023-06-05T04:33:46;94433.16;;;16.90;nan
23166;BME280;11751;42.700;24.170;2023-06-05T04:36:11;94437.84;;;17.13;nan
23166;BME280;11751;42.700;24.170;2023-06-05T04:38:37;94438.66;;;17.33;nan
23166;BME280;11751;42.700;24.170;2023-06-05T04:41:02;94442.84;;;17.41;nan
23166;BME280;11751;42.700;24.170;2023-06-05T04:43:28;94452.38;;;17.46;nan
23166;BME280;11751;42.700;24.170;2023-06-05T04:45:53;94439.88;;;17.58;nan
23166;BME280;11751;42.700;24.170;2023-06-05T04:48:19;94460.44;;;17.87;nan
23166;BME280;11751;42.700;24.170;2023-06-05T04:50:44;94458.84;;;17.84;nan
23166;BME280;11751;42.700;24.170;2023-06-05T04:53:10;94459.72;;;17.87;nan
23166;BME280;11751;42.700;24.170;2023-06-05T04:55:36;94466.75;;;17.95;nan
23166;BME280;11751;42.700;24.170;2023-06-05T04:58:01;94467.91;;;18.11;nan
23166;BME280;11751;42.700;24.170;2023-06-05T05:00:27;94473.56;;;18.11;nan
23166;BME280;11751;42.700;24.170;2023-06-05T05:02:53;94473.16;;;18.24;nan
23166;BME280;11751;42.700;24.170;2023-06-05T05:05:19;94480.88;;;18.04;nan
23166;BME280;11751;42.700;24.170;2023-06-05T05:07:45;94481.78;;;18.16;nan
23166;BME280;11751;42.700;24.170;2023-06-05T05:10:11;94490.00;;;18.22;nan
23166;BME280;11751;42.700;24.170;2023-06-05T05:12:37;94475.22;;;18.23;nan
23166;BME280;11751;42.700;24.170;2023-06-05T05:15:03;94477.00;;;18.47;nan
23166;BME280;11751;42.700;24.170;2023-06-05T05:17:29;94477.25;;;18.61;nan
23166;BME280;11751;42.700;24.170;2023-06-05T05:19:55;94482.56;;;18.85;nan
23166;BME280;11751;42.700;24.170;2023-06-05T05:22:21;94480.47;;;19.25;nan
23166;BME280;11751;42.700;24.170;2023-06-05T05:24:46;94474.91;;;19.78;nan
23166;BME280;11751;42.700;24.170;2023-06-05T05:27:11;94467.69;;;20.40;nan
23166;BME280;11751;42.700;24.170;2023-06-05T05:29:37;94479.63;;;20.92;nan
23166;BME280;11751;42.700;24.170;2023-06-05T05:32:02;94474.19;;;21.30;nan
23166;BME280;11751;42.700;24.170;2023-06-05T05:34:28;94471.72;;;21.48;nan
23166;BME280;11751;42.700;24.170;2023-06-05T05:36:53;94479.16;;;21.41;nan
23166;BME280;11751;42.700;24.170;2023-06-05T05:39:18;94480.16;;;21.34;nan
23166;BME280;11751;42.700;24.170;2023-06-05T05:41:44;94469.00;;;21.04;nan
23166;BME280;11751;42.700;24.170;2023-06-05T05:44:09;94469.69;;;20.81;nan
23166;BME280;11751;42.700;24.170;2023-06-05T05:46:35;94454.25;;;21.07;nan
23166;BME280;11751;42.700;24.170;2023-06-05T05:49:01;94471.84;;;21.61;nan
23166;BME280;11751;42.700;24.170;2023-06-05T05:51:26;94480.63;;;21.42;nan
23166;BME280;11751;42.700;24.170;2023-06-05T05:53:51;94481.63;;;21.47;nan
23166;BME280;11751;42.700;24.170;2023-06-05T11:00:30;94362.72;;;25.23;nan
23166;BME280;11751;42.700;24.170;2023-06-05T11:40:06;94385.09;;;25.26;nan
23166;BME280;11751;42.700;24.170;2023-06-05T12:36:40;94308.47;;;26.99;nan
23166;BME280;11751;42.700;24.170;2023-06-05T12:48:53;94305.69;;;27.01;nan
23166;BME280;11751;42.700;24.170;2023-06-05T15:39:02;94239.13;;;25.48;nan
23166;BME280;11751;42.700;24.170;2023-06-05T15:48:44;94235.75;;;24.72;nan
23166;BME280;11751;42.700;24.170;2023-06-05T17:28:23;94315.56;;;22.43;nan
23166;BME280;11751;42.700;24.170;2023-06-05T20:49:54;94391.94;;;16.25;nan
23166;BME280;11751;42.700;24.170;2023-06-05T21:09:33;94373.94;;;16.20;nan
23166;BME280;11751;42.700;24.170;2023-06-05T21:41:03;94373.41;;;16.05;nan
23166;BME280;11751;42.700;24.170;2023-06-05T22:22:32;94438.94;;;15.02;nan
23166;BME280;11751;42.700;24.170;2023-06-05T22:29:50;94351.00;;;14.96;nan
23166;BME280;11751;42.700;24.170;2023-06-05T22:46:53;94363.13;;;15.23;nan
